sensor_id;sensor_type;location;lat;lon;timestamp;pressure;altitude;pressure_sealevel;temperature;humidity
76358;BME280;65185;21.060;105.826;2024-02-14T00:01:58;101888.97;;;20.48;100.00
76358;BME280;65185;21.060;105.826;2024-02-14T00:04:25;101895.94;;;20.51;100.00
76358;BME280;65185;21.060;105.826;2024-02-14T00:06:51;101891.50;;;20.51;100.00
76358;BME280;65185;21.060;105.826;2024-02-14T00:09:19;101902.03;;;20.51;100.00
76358;BME280;65185;21.060;105.826;2024-02-14T00:11:45;101898.56;;;20.51;100.00
76358;BME280;65185;21.060;105.826;2024-02-14T00:14:11;101909.94;;;20.51;100.00
76358;BME280;65185;21.060;105.826;2024-02-14T00:16:39;101909.94;;;20.51;100.00
76358;BME280;65185;21.060;105.826;2024-02-14T00:19:05;101913.44;;;20.52;100.00
76358;BME280;65185;21.060;105.826;2024-02-14T00:21:31;101912.56;;;20.53;100.00
76358;BME280;65185;21.060;105.826;2024-02-14T00:24:00;101926.56;;;20.53;100.00
76358;BME280;65185;21.060;105.826;2024-02-14T00:26:27;101927.34;;;20.57;100.00
76358;BME280;65185;21.060;105.826;2024-02-14T00:28:53;101926.44;;;20.58;100.00
76358;BME280;65185;21.060;105.826;2024-02-14T00:31:20;101923.88;;;20.56;100.00
76358;BME280;65185;21.060;105.826;2024-02-14T00:33:46;101937.84;;;20.58;100.00
76358;BME280;65185;21.060;105.826;2024-02-14T00:36:13;101932.59;;;20.58;100.00
76358;BME280;65185;21.060;105.826;2024-02-14T00:38:39;101929.88;;;20.61;100.00
76358;BME280;65185;21.060;105.826;2024-02-14T00:41:06;101931.66;;;20.59;100.00
76358;BME280;65185;21.060;105.826;2024-02-14T00:43:32;101940.50;;;20.58;100.00
76358;BME280;65185;21.060;105.826;2024-02-14T00:45:58;101944.88;;;20.58;100.00
76358;BME280;65185;21.060;105.826;2024-02-14T00:48:24;101944.06;;;20.56;100.00
76358;BME280;65185;21.060;105.826;2024-02-14T00:50:51;101949.38;;;20.54;100.00
76358;BME280;65185;21.060;105.826;2024-02-14T00:53:18;101948.50;;;20.54;100.00
76358;BME280;65185;21.060;105.826;2024-02-14T00:55:44;101957.28;;;20.54;100.00
76358;BME280;65185;21.060;105.826;2024-02-14T00:58:11;101955.47;;;20.55;100.00
76358;BME280;65185;21.060;105.826;2024-02-14T01:00:37;101955.47;;;20.56;100.00
76358;BME280;65185;21.060;105.826;2024-02-14T01:03:03;101957.03;;;20.63;100.00
76358;BME280;65185;21.060;105.826;2024-02-14T01:05:30;101964.88;;;20.65;100.00
76358;BME280;65185;21.060;105.826;2024-02-14T01:07:56;101959.41;;;20.72;100.00
76358;BME280;65185;21.060;105.826;2024-02-14T01:10:22;101950.53;;;20.75;100.00
76358;BME280;65185;21.060;105.826;2024-02-14T01:12:49;101959.25;;;20.78;100.00
76358;BME280;65185;21.060;105.826;2024-02-14T01:15:15;101961.75;;;20.83;100.00
76358;BME280;65185;21.060;105.826;2024-02-14T01:17:41;101960.81;;;20.85;100.00
76358;BME280;65185;21.060;105.826;2024-02-14T01:20:08;101962.53;;;20.86;100.00
76358;BME280;65185;21.060;105.826;2024-02-14T01:22:35;101973.94;;;20.87;100.00
76358;BME280;65185;21.060;105.826;2024-02-14T01:25:03;101973.00;;;20.90;100.00
76358;BME280;65185;21.060;105.826;2024-02-14T01:27:30;101965.88;;;20.92;100.00
76358;BME280;65185;21.060;105.826;2024-02-14T01:29:56;101969.34;;;20.94;100.00
76358;BME280;65185;21.060;105.826;2024-02-14T01:32:24;101973.38;;;21.08;100.00
76358;BME280;65185;21.060;105.826;2024-02-14T01:34:50;101978.56;;;21.11;100.00
76358;BME280;65185;21.060;105.826;2024-02-14T01:37:16;101980.34;;;21.11;100.00
76358;BME280;65185;21.060;105.826;2024-02-14T01:39:43;101985.34;;;21.20;100.00
76358;BME280;65185;21.060;105.826;2024-02-14T01:42:09;101981.34;;;21.37;100.00
76358;BME280;65185;21.060;105.826;2024-02-14T01:44:35;101983.03;;;21.38;100.00
76358;BME280;65185;21.060;105.826;2024-02-14T01:47:02;101983.16;;;21.35;100.00
76358;BME280;65185;21.060;105.826;2024-02-14T01:49:29;101994.47;;;21.39;100.00
76358;BME280;65185;21.060;105.826;2024-02-14T01:52:01;101990.00;;;21.41;100.00
76358;BME280;65185;21.060;105.826;2024-02-14T01:54:29;101993.47;;;21.43;100.00
76358;BME280;65185;21.060;105.826;2024-02-14T01:56:56;101999.63;;;21.42;100.00
76358;BME280;65185;21.060;105.826;2024-02-14T01:59:24;102000.50;;;21.42;100.00
76358;BME280;65185;21.060;105.826;2024-02-14T02:01:51;101999.63;;;21.42;100.00
76358;BME280;65185;21.060;105.826;2024-02-14T02:04:18;102002.16;;;21.46;100.00
76358;BME280;65185;21.060;105.826;2024-02-14T02:06:45;102006.59;;;21.44;100.00
76358;BME280;65185;21.060;105.826;2024-02-14T02:09:11;102010.06;;;21.46;100.00
76358;BME280;65185;21.060;105.826;2024-02-14T02:11:50;102002.88;;;21.51;100.00
76358;BME280;65185;21.060;105.826;2024-02-14T02:14:17;101998.47;;;21.52;100.00
76358;BME280;65185;21.060;105.826;2024-02-14T02:16:43;102003.78;;;21.50;100.00
76358;BME280;65185;21.060;105.826;2024-02-14T02:19:10;102010.91;;;21.47;100.00
76358;BME280;65185;21.060;105.826;2024-02-14T02:21:36;102002.81;;;21.53;100.00
76358;BME280;65185;21.060;105.826;2024-02-14T02:24:03;102001.44;;;21.69;100.00
76358;BME280;65185;21.060;105.826;2024-02-14T02:26:29;101992.47;;;21.74;100.00
76358;BME280;65185;21.060;105.826;2024-02-14T02:28:55;101998.22;;;21.90;100.00
76358;BME280;65185;21.060;105.826;2024-02-14T02:31:22;101993.94;;;21.86;100.00
76358;BME280;65185;21.060;105.826;2024-02-14T02:33:48;101989.47;;;21.88;100.00
76358;BME280;65185;21.060;105.826;2024-02-14T02:36:15;101984.03;;;21.93;100.00
76358;BME280;65185;21.060;105.826;2024-02-14T02:38:42;101976.13;;;21.93;100.00
76358;BME280;65185;21.060;105.826;2024-02-14T02:41:09;101984.03;;;21.93;100.00
76358;BME280;65185;21.060;105.826;2024-02-14T02:43:36;101988.59;;;21.88;100.00
76358;BME280;65185;21.060;105.826;2024-02-14T02:46:02;101993.94;;;21.86;100.00
76358;BME280;65185;21.060;105.826;2024-02-14T02:48:28;101993.53;;;21.98;100.00
76358;BME280;65185;21.060;105.826;2024-02-14T02:50:55;101991.09;;;21.92;100.00
76358;BME280;65185;21.060;105.826;2024-02-14T02:53:21;101993.88;;;21.88;100.00
76358;BME280;65185;21.060;105.826;2024-02-14T02:55:47;101988.59;;;21.88;100.00
76358;BME280;65185;21.060;105.826;2024-02-14T02:58:16;101997.03;;;21.99;100.00
76358;BME280;65185;21.060;105.826;2024-02-14T03:00:43;101998.22;;;21.90;100.00
76358;BME280;65185;21.060;105.826;2024-02-14T03:03:09;101987.66;;;21.90;100.00
76358;BME280;65185;21.060;105.826;2024-02-14T03:05:36;101986.88;;;21.87;100.00
76358;BME280;65185;21.060;105.826;2024-02-14T03:08:04;101992.09;;;21.88;100.00
76358;BME280;65185;21.060;105.826;2024-02-14T03:10:33;101989.66;;;21.82;100.00
76358;BME280;65185;21.060;105.826;2024-02-14T03:12:59;101981.91;;;21.76;100.00
76358;BME280;65185;21.060;105.826;2024-02-14T03:15:25;101976.72;;;21.73;100.00
76358;BME280;65185;21.060;105.826;2024-02-14T03:17:52;101974.91;;;21.75;100.00
76358;BME280;65185;21.060;105.826;2024-02-14T03:20:18;101968.75;;;21.74;100.00
76358;BME280;65185;21.060;105.826;2024-02-14T03:22:45;101975.75;;;21.75;100.00
76358;BME280;65185;21.060;105.826;2024-02-14T03:25:19;101962.47;;;21.78;100.00
76358;BME280;65185;21.060;105.826;2024-02-14T03:27:47;101957.69;;;21.91;100.00
76358;BME280;65185;21.060;105.826;2024-02-14T03:30:19;101954.69;;;22.03;100.00
76358;BME280;65185;21.060;105.826;2024-02-14T03:32:46;101945.00;;;22.02;100.00
76358;BME280;65185;21.060;105.826;2024-02-14T03:35:13;101955.63;;;22.01;100.00
76358;BME280;65185;21.060;105.826;2024-02-14T03:37:40;101947.88;;;21.96;100.00
76358;BME280;65185;21.060;105.826;2024-02-14T03:40:08;101946.06;;;21.97;100.00
76358;BME280;65185;21.060;105.826;2024-02-14T03:42:35;101945.25;;;21.95;100.00
76358;BME280;65185;21.060;105.826;2024-02-14T03:45:02;101938.22;;;21.95;100.00
76358;BME280;65185;21.060;105.826;2024-02-14T03:47:32;101941.63;;;21.99;100.00
76358;BME280;65185;21.060;105.826;2024-02-14T03:49:59;101929.84;;;22.09;100.00
76358;BME280;65185;21.060;105.826;2024-02-14T03:52:26;101930.13;;;22.26;100.00
76358;BME280;65185;21.060;105.826;2024-02-14T03:54:52;101920.03;;;22.38;100.00
76358;BME280;65185;21.060;105.826;2024-02-14T03:57:19;101912.31;;;22.58;100.00
76358;BME280;65185;21.060;105.826;2024-02-14T03:59:46;101913.88;;;22.64;100.00
76358;BME280;65185;21.060;105.826;2024-02-14T04:02:12;101915.66;;;22.63;100.00
76358;BME280;65185;21.060;105.826;2024-02-14T04:04:41;101915.53;;;22.66;100.00
76358;BME280;65185;21.060;105.826;2024-02-14T04:07:08;101901.94;;;22.52;100.00
76358;BME280;65185;21.060;105.826;2024-02-14T04:09:35;101906.78;;;22.40;100.00
76358;BME280;65185;21.060;105.826;2024-02-14T04:12:01;101895.97;;;22.47;100.00
76358;BME280;65185;21.060;105.826;2024-02-14T04:14:28;101885.66;;;22.40;100.00
76358;BME280;65185;21.060;105.826;2024-02-14T04:16:54;101897.09;;;22.40;100.00
76358;BME280;65185;21.060;105.826;2024-02-14T04:19:21;101888.34;;;22.38;100.00
76358;BME280;65185;21.060;105.826;2024-02-14T04:21:47;101880.56;;;22.34;100.00
76358;BME280;65185;21.060;105.826;2024-02-14T04:24:14;101877.06;;;22.33;100.00
76358;BME280;65185;21.060;105.826;2024-02-14T04:26:40;101870.72;;;22.39;100.00
76358;BME280;65185;21.060;105.826;2024-02-14T04:29:08;101873.50;;;22.60;100.00
76358;BME280;65185;21.060;105.826;2024-02-14T04:31:34;101853.28;;;22.59;100.00
76358;BME280;65185;21.060;105.826;2024-02-14T04:34:01;101871.63;;;22.62;100.00
76358;BME280;65185;21.060;105.826;2024-02-14T04:36:27;101859.09;;;22.69;100.00
76358;BME280;65185;21.060;105.826;2024-02-14T04:38:57;101851.16;;;22.69;100.00
76358;BME280;65185;21.060;105.826;2024-02-14T04:41:23;101847.78;;;22.65;100.00
76358;BME280;65185;21.060;105.826;2024-02-14T04:43:50;101854.09;;;22.61;100.00
76358;BME280;65185;21.060;105.826;2024-02-14T04:46:16;101848.81;;;22.61;100.00
76358;BME280;65185;21.060;105.826;2024-02-14T04:48:43;101836.63;;;22.57;100.00
76358;BME280;65185;21.060;105.826;2024-02-14T04:51:09;101836.41;;;22.63;100.00
76358;BME280;65185;21.060;105.826;2024-02-14T04:53:35;101834.44;;;22.68;100.00
76358;BME280;65185;21.060;105.826;2024-02-14T04:56:01;101827.50;;;22.66;100.00
76358;BME280;65185;21.060;105.826;2024-02-14T04:58:28;101818.50;;;22.71;100.00
76358;BME280;65185;21.060;105.826;2024-02-14T05:00:54;101810.72;;;22.67;100.00
76358;BME280;65185;21.060;105.826;2024-02-14T05:03:23;101802.72;;;22.68;100.00
76358;BME280;65185;21.060;105.826;2024-02-14T05:05:50;101797.22;;;22.74;100.00
76358;BME280;65185;21.060;105.826;2024-02-14T05:08:16;101790.34;;;22.70;100.00
76358;BME280;65185;21.060;105.826;2024-02-14T05:10:43;101790.34;;;22.70;100.00
76358;BME280;65185;21.060;105.826;2024-02-14T05:13:09;101779.53;;;22.76;100.00
76358;BME280;65185;21.060;105.826;2024-02-14T05:15:35;101775.00;;;22.80;100.00
76358;BME280;65185;21.060;105.826;2024-02-14T05:18:02;101771.13;;;22.89;100.00
76358;BME280;65185;21.060;105.826;2024-02-14T05:20:29;101758.41;;;22.98;99.87
76358;BME280;65185;21.060;105.826;2024-02-14T05:22:55;101749.69;;;22.96;100.00
76358;BME280;65185;21.060;105.826;2024-02-14T05:25:22;101734.63;;;22.98;98.84
76358;BME280;65185;21.060;105.826;2024-02-14T05:27:48;101742.25;;;23.06;96.32
76358;BME280;65185;21.060;105.826;2024-02-14T05:30:14;101729.84;;;23.08;97.70
76358;BME280;65185;21.060;105.826;2024-02-14T05:32:41;101728.78;;;23.12;96.18
76358;BME280;65185;21.060;105.826;2024-02-14T05:35:07;101722.03;;;23.05;98.40
76358;BME280;65185;21.060;105.826;2024-02-14T05:37:35;101727.66;;;22.96;100.00
76358;BME280;65185;21.060;105.826;2024-02-14T05:40:03;101720.00;;;22.90;100.00
76358;BME280;65185;21.060;105.826;2024-02-14T05:42:32;101711.34;;;22.86;100.00
76358;BME280;65185;21.060;105.826;2024-02-14T05:45:00;101694.75;;;22.83;100.00
76358;BME280;65185;21.060;105.826;2024-02-14T05:47:28;101684.28;;;22.79;100.00
76358;BME280;65185;21.060;105.826;2024-02-14T05:49:54;101684.28;;;22.79;100.00
76358;BME280;65185;21.060;105.826;2024-02-14T05:52:20;101683.31;;;22.82;100.00
76358;BME280;65185;21.060;105.826;2024-02-14T05:54:47;101668.31;;;22.83;100.00
76358;BME280;65185;21.060;105.826;2024-02-14T05:57:14;101660.50;;;22.79;100.00
76358;BME280;65185;21.060;105.826;2024-02-14T05:59:40;101649.31;;;22.73;100.00
76358;BME280;65185;21.060;105.826;2024-02-14T06:02:07;101661.66;;;22.72;100.00
76358;BME280;65185;21.060;105.826;2024-02-14T06:04:35;101648.44;;;22.72;100.00
76358;BME280;65185;21.060;105.826;2024-02-14T06:07:02;101646.91;;;22.67;100.00
76358;BME280;65185;21.060;105.826;2024-02-14T06:09:28;101636.50;;;22.62;100.00
76358;BME280;65185;21.060;105.826;2024-02-14T06:11:54;101640.97;;;22.62;100.00
76358;BME280;65185;21.060;105.826;2024-02-14T06:14:21;101623.81;;;22.72;100.00
76358;BME280;65185;21.060;105.826;2024-02-14T06:16:47;101633.03;;;22.84;100.00
76358;BME280;65185;21.060;105.826;2024-02-14T06:19:13;101630.25;;;22.87;100.00
76358;BME280;65185;21.060;105.826;2024-02-14T06:21:40;101615.47;;;22.83;100.00
76358;BME280;65185;21.060;105.826;2024-02-14T06:24:06;101613.06;;;22.76;100.00
76358;BME280;65185;21.060;105.826;2024-02-14T06:26:32;101605.13;;;22.76;100.00
76358;BME280;65185;21.060;105.826;2024-02-14T06:28:59;101594.31;;;22.83;100.00
76358;BME280;65185;21.060;105.826;2024-02-14T06:31:25;101590.75;;;22.84;100.00
76358;BME280;65185;21.060;105.826;2024-02-14T06:33:51;101588.97;;;22.84;100.00
76358;BME280;65185;21.060;105.826;2024-02-14T06:36:18;101587.22;;;22.83;100.00
76358;BME280;65185;21.060;105.826;2024-02-14T06:38:44;101588.25;;;22.81;100.00
76358;BME280;65185;21.060;105.826;2024-02-14T06:41:12;101585.97;;;22.71;100.00
76358;BME280;65185;21.060;105.826;2024-02-14T06:43:39;101573.91;;;22.64;100.00
76358;BME280;65185;21.060;105.826;2024-02-14T06:46:05;101566.19;;;22.60;100.00
76358;BME280;65185;21.060;105.826;2024-02-14T06:48:32;101569.63;;;22.62;100.00
76358;BME280;65185;21.060;105.826;2024-02-14T06:50:58;101565.09;;;22.65;100.00
76358;BME280;65185;21.060;105.826;2024-02-14T06:53:24;101563.47;;;22.61;100.00
76358;BME280;65185;21.060;105.826;2024-02-14T06:55:51;101558.13;;;22.63;100.00
76358;BME280;65185;21.060;105.826;2024-02-14T06:58:17;101565.19;;;22.62;100.00
76358;BME280;65185;21.060;105.826;2024-02-14T07:00:43;101557.97;;;22.67;100.00
76358;BME280;65185;21.060;105.826;2024-02-14T07:03:10;101552.47;;;22.72;100.00
76358;BME280;65185;21.060;105.826;2024-02-14T07:05:36;101547.00;;;22.76;100.00
76358;BME280;65185;21.060;105.826;2024-02-14T07:08:02;101538.22;;;22.76;100.00
76358;BME280;65185;21.060;105.826;2024-02-14T07:10:29;101533.06;;;22.73;100.00
76358;BME280;65185;21.060;105.826;2024-02-14T07:12:55;101535.00;;;22.68;100.00
76358;BME280;65185;21.060;105.826;2024-02-14T07:15:21;101526.78;;;22.75;100.00
76358;BME280;65185;21.060;105.826;2024-02-14T07:17:51;101531.00;;;22.79;100.00
76358;BME280;65185;21.060;105.826;2024-02-14T07:20:17;101524.03;;;22.78;100.00
76358;BME280;65185;21.060;105.826;2024-02-14T07:22:43;101521.88;;;22.87;100.00
76358;BME280;65185;21.060;105.826;2024-02-14T07:25:13;101514.56;;;22.93;100.00
76358;BME280;65185;21.060;105.826;2024-02-14T07:27:40;101511.69;;;22.99;100.00
76358;BME280;65185;21.060;105.826;2024-02-14T07:30:06;101507.22;;;23.00;100.00
76358;BME280;65185;21.060;105.826;2024-02-14T07:32:33;101511.59;;;23.01;100.00
76358;BME280;65185;21.060;105.826;2024-02-14T07:34:59;101496.72;;;22.98;100.00
76358;BME280;65185;21.060;105.826;2024-02-14T07:37:25;101504.66;;;22.98;100.00
76358;BME280;65185;21.060;105.826;2024-02-14T07:39:52;101496.19;;;22.90;100.00
76358;BME280;65185;21.060;105.826;2024-02-14T07:42:18;101498.97;;;22.87;100.00
76358;BME280;65185;21.060;105.826;2024-02-14T07:44:44;101501.88;;;22.81;100.00
76358;BME280;65185;21.060;105.826;2024-02-14T07:47:11;101493.16;;;22.79;100.00
76358;BME280;65185;21.060;105.826;2024-02-14T07:49:38;101493.16;;;22.79;100.00
76358;BME280;65185;21.060;105.826;2024-02-14T07:52:04;101500.41;;;22.74;100.00
76358;BME280;65185;21.060;105.826;2024-02-14T07:54:31;101486.56;;;22.69;100.00
76358;BME280;65185;21.060;105.826;2024-02-14T07:56:57;101484.06;;;22.66;100.00
76358;BME280;65185;21.060;105.826;2024-02-14T07:59:24;101486.69;;;22.66;100.00
76358;BME280;65185;21.060;105.826;2024-02-14T08:01:50;101484.81;;;22.68;100.00
76358;BME280;65185;21.060;105.826;2024-02-14T08:04:16;101487.28;;;22.72;100.00
76358;BME280;65185;21.060;105.826;2024-02-14T08:06:46;101483.38;;;22.81;100.00
76358;BME280;65185;21.060;105.826;2024-02-14T08:09:12;101485.03;;;22.84;100.00
76358;BME280;65185;21.060;105.826;2024-02-14T08:11:38;101484.38;;;22.78;100.00
76358;BME280;65185;21.060;105.826;2024-02-14T08:14:05;101476.78;;;22.71;100.00
76358;BME280;65185;21.060;105.826;2024-02-14T08:16:34;101480.41;;;22.68;100.00
76358;BME280;65185;21.060;105.826;2024-02-14T08:19:02;101485.75;;;22.67;100.00
76358;BME280;65185;21.060;105.826;2024-02-14T08:21:29;101482.06;;;22.71;100.00
76358;BME280;65185;21.060;105.826;2024-02-14T08:23:55;101487.47;;;22.68;100.00
76358;BME280;65185;21.060;105.826;2024-02-14T08:26:22;101481.28;;;22.69;100.00
76358;BME280;65185;21.060;105.826;2024-02-14T08:28:51;101485.50;;;22.73;100.00
76358;BME280;65185;21.060;105.826;2024-02-14T08:31:17;101480.16;;;22.74;100.00
76358;BME280;65185;21.060;105.826;2024-02-14T08:33:44;101468.31;;;22.83;100.00
76358;BME280;65185;21.060;105.826;2024-02-14T08:36:10;101466.72;;;22.79;100.00
76358;BME280;65185;21.060;105.826;2024-02-14T08:38:36;101472.09;;;22.77;100.00
76358;BME280;65185;21.060;105.826;2024-02-14T08:41:04;101474.72;;;22.77;100.00
76358;BME280;65185;21.060;105.826;2024-02-14T08:43:31;101471.25;;;22.77;100.00
76358;BME280;65185;21.060;105.826;2024-02-14T08:45:57;101466.72;;;22.79;100.00
76358;BME280;65185;21.060;105.826;2024-02-14T08:48:24;101471.16;;;22.78;100.00
76358;BME280;65185;21.060;105.826;2024-02-14T08:50:53;101463.25;;;22.78;100.00
76358;BME280;65185;21.060;105.826;2024-02-14T08:53:19;101467.59;;;22.79;100.00
76358;BME280;65185;21.060;105.826;2024-02-14T08:55:45;101474.78;;;22.76;100.00
76358;BME280;65185;21.060;105.826;2024-02-14T08:58:11;101475.84;;;22.72;100.00
76358;BME280;65185;21.060;105.826;2024-02-14T09:00:38;101472.41;;;22.70;100.00
76358;BME280;65185;21.060;105.826;2024-02-14T09:03:05;101481.34;;;22.67;100.00
76358;BME280;65185;21.060;105.826;2024-02-14T09:05:32;101476.16;;;22.64;100.00
76358;BME280;65185;21.060;105.826;2024-02-14T09:07:58;101476.31;;;22.61;100.00
76358;BME280;65185;21.060;105.826;2024-02-14T09:10:26;101470.94;;;22.63;100.00
76358;BME280;65185;21.060;105.826;2024-02-14T09:12:52;101465.56;;;22.66;100.00
76358;BME280;65185;21.060;105.826;2024-02-14T09:15:19;101467.25;;;22.67;100.00
76358;BME280;65185;21.060;105.826;2024-02-14T09:17:46;101472.78;;;22.61;100.00
76358;BME280;65185;21.060;105.826;2024-02-14T09:20:12;101475.44;;;22.61;100.00
76358;BME280;65185;21.060;105.826;2024-02-14T09:22:40;101482.53;;;22.60;100.00
76358;BME280;65185;21.060;105.826;2024-02-14T09:25:09;101478.16;;;22.59;100.00
76358;BME280;65185;21.060;105.826;2024-02-14T09:27:36;101484.41;;;22.57;100.00
76358;BME280;65185;21.060;105.826;2024-02-14T09:30:03;101481.88;;;22.54;100.00
76358;BME280;65185;21.060;105.826;2024-02-14T09:32:33;101496.09;;;22.51;100.00
76358;BME280;65185;21.060;105.826;2024-02-14T09:34:59;101484.06;;;22.66;100.00
76358;BME280;65185;21.060;105.826;2024-02-14T09:37:27;101486.97;;;22.80;100.00
76358;BME280;65185;21.060;105.826;2024-02-14T09:39:54;101492.75;;;22.68;100.00
76358;BME280;65185;21.060;105.826;2024-02-14T09:42:26;101486.22;;;22.56;100.00
76358;BME280;65185;21.060;105.826;2024-02-14T09:44:58;101486.16;;;22.58;100.00
76358;BME280;65185;21.060;105.826;2024-02-14T09:47:27;101483.72;;;22.52;100.00
76358;BME280;65185;21.060;105.826;2024-02-14T09:49:59;101490.91;;;22.48;100.00
76358;BME280;65185;21.060;105.826;2024-02-14T09:52:29;101500.75;;;22.45;100.00
76358;BME280;65185;21.060;105.826;2024-02-14T09:54:59;101508.28;;;22.54;100.00
76358;BME280;65185;21.060;105.826;2024-02-14T09:57:29;101504.91;;;22.50;100.00
76358;BME280;65185;21.060;105.826;2024-02-14T09:59:56;101510.50;;;22.43;100.00
76358;BME280;65185;21.060;105.826;2024-02-14T10:02:23;101522.13;;;22.39;100.00
76358;BME280;65185;21.060;105.826;2024-02-14T10:04:49;101523.97;;;22.37;100.00
76358;BME280;65185;21.060;105.826;2024-02-14T10:07:15;101522.38;;;22.33;100.00
76358;BME280;65185;21.060;105.826;2024-02-14T10:09:42;101525.88;;;22.33;100.00
76358;BME280;65185;21.060;105.826;2024-02-14T10:12:09;101523.28;;;22.32;100.00
76358;BME280;65185;21.060;105.826;2024-02-14T10:14:36;101526.88;;;22.31;100.00
76358;BME280;65185;21.060;105.826;2024-02-14T10:17:06;101526.06;;;22.29;100.00
76358;BME280;65185;21.060;105.826;2024-02-14T10:19:34;101527.84;;;22.28;100.00
76358;BME280;65185;21.060;105.826;2024-02-14T10:22:01;101528.81;;;22.26;100.00
76358;BME280;65185;21.060;105.826;2024-02-14T10:24:31;101528.88;;;22.24;100.00
76358;BME280;65185;21.060;105.826;2024-02-14T10:27:00;101524.53;;;22.23;100.00
76358;BME280;65185;21.060;105.826;2024-02-14T10:29:27;101529.81;;;22.23;100.00
76358;BME280;65185;21.060;105.826;2024-02-14T10:31:53;101523.59;;;22.24;100.00
76358;BME280;65185;21.060;105.826;2024-02-14T10:34:24;101530.69;;;22.24;100.00
76358;BME280;65185;21.060;105.826;2024-02-14T10:36:53;101540.38;;;22.23;100.00
76358;BME280;65185;21.060;105.826;2024-02-14T10:39:23;101526.31;;;22.23;100.00
76358;BME280;65185;21.060;105.826;2024-02-14T10:41:50;101529.00;;;22.21;100.00
76358;BME280;65185;21.060;105.826;2024-02-14T10:44:16;101537.06;;;22.18;100.00
76358;BME280;65185;21.060;105.826;2024-02-14T10:46:44;101536.88;;;22.23;100.00
76358;BME280;65185;21.060;105.826;2024-02-14T10:49:12;101529.91;;;22.20;100.00
76358;BME280;65185;21.060;105.826;2024-02-14T10:51:43;101542.28;;;22.20;100.00
76358;BME280;65185;21.060;105.826;2024-02-14T10:54:13;101541.53;;;22.16;100.00
76358;BME280;65185;21.060;105.826;2024-02-14T10:56:48;101538.94;;;22.15;100.00
76358;BME280;65185;21.060;105.826;2024-02-14T10:59:17;101541.63;;;22.13;100.00
76358;BME280;65185;21.060;105.826;2024-02-14T11:01:45;101546.13;;;22.11;100.00
76358;BME280;65185;21.060;105.826;2024-02-14T11:04:12;101543.59;;;22.08;100.00
76358;BME280;65185;21.060;105.826;2024-02-14T11:06:51;101553.19;;;22.11;100.00
76358;BME280;65185;21.060;105.826;2024-02-14T11:09:19;101562.09;;;22.08;100.00
76358;BME280;65185;21.060;105.826;2024-02-14T11:11:45;101571.84;;;22.06;100.00
76358;BME280;65185;21.060;105.826;2024-02-14T11:14:21;101565.69;;;22.06;100.00
76358;BME280;65185;21.060;105.826;2024-02-14T11:16:48;101569.19;;;22.06;100.00
76358;BME280;65185;21.060;105.826;2024-02-14T11:19:14;101578.06;;;22.05;100.00
76358;BME280;65185;21.060;105.826;2024-02-14T11:21:46;101580.72;;;22.04;100.00
76358;BME280;65185;21.060;105.826;2024-02-14T11:24:15;101574.59;;;22.03;100.00
76358;BME280;65185;21.060;105.826;2024-02-14T11:26:48;101579.94;;;22.02;100.00
76358;BME280;65185;21.060;105.826;2024-02-14T11:29:17;101589.56;;;22.03;100.00
76358;BME280;65185;21.060;105.826;2024-02-14T11:31:45;101581.72;;;22.01;100.00
76358;BME280;65185;21.060;105.826;2024-02-14T11:34:12;101590.38;;;22.05;100.00
76358;BME280;65185;21.060;105.826;2024-02-14T11:36:41;101585.16;;;22.03;100.00
76358;BME280;65185;21.060;105.826;2024-02-14T11:39:07;101589.63;;;22.01;100.00
76358;BME280;65185;21.060;105.826;2024-02-14T11:41:34;101587.91;;;22.00;100.00
76358;BME280;65185;21.060;105.826;2024-02-14T11:44:02;101588.91;;;21.98;100.00
76358;BME280;65185;21.060;105.826;2024-02-14T11:46:36;101582.69;;;21.99;100.00
76358;BME280;65185;21.060;105.826;2024-02-14T11:49:04;101579.31;;;21.95;100.00
76358;BME280;65185;21.060;105.826;2024-02-14T11:51:33;101580.25;;;21.94;100.00
76358;BME280;65185;21.060;105.826;2024-02-14T11:54:01;101579.31;;;21.95;100.00
76358;BME280;65185;21.060;105.826;2024-02-14T11:56:33;101592.56;;;21.94;100.00
76358;BME280;65185;21.060;105.826;2024-02-14T11:59:00;101594.41;;;21.92;100.00
76358;BME280;65185;21.060;105.826;2024-02-14T12:01:35;101603.00;;;21.97;100.00
76358;BME280;65185;21.060;105.826;2024-02-14T12:04:04;101594.25;;;21.95;100.00
76358;BME280;65185;21.060;105.826;2024-02-14T12:06:34;101604.81;;;21.95;100.00
76358;BME280;65185;21.060;105.826;2024-02-14T12:09:02;101604.81;;;21.95;100.00
76358;BME280;65185;21.060;105.826;2024-02-14T12:11:35;101603.13;;;21.94;100.00
76358;BME280;65185;21.060;105.826;2024-02-14T12:14:08;101604.88;;;21.93;100.00
76358;BME280;65185;21.060;105.826;2024-02-14T12:16:38;101619.84;;;21.93;100.00
76358;BME280;65185;21.060;105.826;2024-02-14T12:19:09;101613.59;;;21.95;100.00
76358;BME280;65185;21.060;105.826;2024-02-14T12:21:42;101623.41;;;21.92;100.00